Date,TemperatureHighF,TemperatureAvgF,TemperatureLowF,DewpointHighF,DewpointAvgF,DewpointLowF,HumidityHigh,HumidityAvg,HumidityLow,PressureMaxIn,PressureMinIn,WindSpeedMaxMPH,WindSpeedAvgMPH,GustSpeedMaxMPH,PrecipitationSumIn
2013-1-1,72,65,56,68,61,52,95,88,82,29.95,29.83,17,4,17,0.21
2013-1-2,59,53,46,55,47,43,86,80,74,30.07,29.92,12,4,12,0.17
2013-1-3,49,45,40,43,37,30,84,72,52,30.24,30.07,12,3,12,0.70
2013-1-4,57,46,37,37,33,28,68,58,41,30.27,30.18,11,2,11,0.00
2013-1-5,52,49,46,37,36,32,60,56,52,30.21,30.12,8,2,8,0.00
2013-1-6,53,50,46,48,43,37,82,74,56,30.15,30.07,10,2,10,0.21
2013-1-7,61,50,42,45,40,36,76,65,45,30.33,30.01,11,2,11,0.04
2013-1-8,64,57,50,59,51,41,87,77,66,30.24,30.18,10,2,10,0.00
2013-1-9,68,65,62,66,64,59,95,90,85,30.27,30.18,10,3,10,0.00
2013-1-10,71,67,63,70,65,63,95,91,88,30.24,30.01,13,3,13,0.29
2013-1-11,74,69,63,70,67,63,96,91,84,30.18,30.09,14,3,14,0.08
2013-1-12,75,71,69,72,69,67,94,90,80,30.15,29.84,14,4,14,0.01
2013-1-13,75,71,62,71,68,58,94,90,84,30.04,29.97,13,5,15,0.05
2013-1-14,62,55,46,58,51,42,93,88,84,30.11,30.01,9,4,13,0.25
2013-1-15,60,53,46,58,51,42,96,92,86,30.05,29.94,6,2,8,0.08
2013-1-16,55,47,42,53,44,38,93,87,83,30.06,29.97,11,5,13,0.17
2013-1-17,50,42,36,37,32,27,83,68,49,30.36,30.06,23,7,24,0.08
2013-1-18,59,44,35,41,36,32,90,74,46,30.45,30.35,9,2,11,0.00
2013-1-19,65,48,37,48,40,33,88,76,53,30.36,30.24,6,2,7,0.00
2013-1-20,64,48,37,50,42,34,98,81,51,30.26,30.16,6,1,9,0.17
2013-1-21,69,50,37,47,41,37,98,75,36,30.22,30.13,13,2,13,0.00
2013-1-22,68,47,36,40,33,27,94,62,34,30.34,30.22,8,2,8,0.00
2013-1-23,74,52,33,55,41,31,98,71,38,30.37,30.31,10,1,10,0.00
2013-1-24,69,59,48,57,49,38,84,70,63,30.31,30.22,10,2,10,0.00
2013-1-25,70,60,52,57,51,43,85,72,63,30.28,30.19,12,2,15,0.00
2013-1-26,72,62,55,62,55,48,92,78,68,30.25,30.19,9,1,9,0.00
2013-1-27,72,60,50,63,55,48,96,86,63,30.31,30.25,6,1,10,0.00
2013-1-28,77,65,54,66,61,53,98,87,66,30.28,30.19,8,2,9,0.00
2013-1-29,77,70,67,71,68,65,96,92,80,30.19,29.92,14,4,17,0.04
2013-1-30,73,61,42,70,56,30,96,84,53,30.17,29.77,24,6,30,1.00
2013-1-31,60,46,33,37,33,30,87,64,37,30.31,30.17,10,3,13,0.00
2013-2-1,62,47,38,41,36,31,87,69,44,30.37,30.28,9,2,11,0.00
2013-2-2,65,48,32,50,38,27,88,71,53,30.35,30.19,11,2,11,0.00
2013-2-3,67,53,43,51,42,36,94,70,33,30.25,30.16,12,2,12,0.00
2013-2-4,64,52,41,53,44,36,91,76,52,30.16,30.01,5,1,5,0.25
2013-2-5,71,60,53,64,57,52,96,89,74,30.07,29.95,6,1,10,0.91
2013-2-6,73,61,53,63,57,52,98,88,69,30.16,30.07,9,2,9,0.00
2013-2-7,76,63,53,70,59,51,98,88,62,30.07,29.86,14,3,14,0.08
2013-2-8,74,60,50,62,54,49,95,83,63,30.19,30.01,9,2,11,0.00
2013-2-9,69,56,46,57,50,42,93,78,65,30.25,30.13,9,3,11,0.00
2013-2-10,71,66,56,69,63,54,97,90,79,30.13,30.01,12,5,19,0.04
2013-2-11,69,63,58,68,62,57,98,96,90,30.16,30.04,13,3,13,1.00
2013-2-12,69,62,57,68,62,56,98,98,97,30.07,29.80,11,3,14,0.34
2013-2-13,67,53,41,66,51,41,98,94,81,30.11,29.83,17,3,17,0.37
2013-2-14,64,47,39,48,42,37,98,84,52,30.17,30.07,6,1,8,0.00
2013-2-15,65,49,36,47,41,35,98,77,43,30.19,30.07,8,2,10,0.00
2013-2-16,55,46,33,41,29,20,74,52,34,30.29,30.13,20,6,24,0.00
2013-2-17,59,41,30,36,28,22,78,61,40,30.37,30.25,10,1,10,0.00
2013-2-18,66,52,37,56,43,31,92,74,52,30.26,30.04,13,4,17,0.00
2013-2-19,69,58,39,60,47,31,95,69,33,30.23,30.01,15,4,15,0.99
2013-2-20,65,47,37,38,31,26,78,55,36,30.26,30.08,11,2,11,0.00
2013-2-21,68,58,43,65,49,32,93,72,57,30.08,29.89,13,4,15,0.00
2013-2-22,71,65,59,67,60,55,97,85,57,30.01,29.92,10,3,12,3.03
2013-2-23,60,58,56,58,56,52,98,95,87,29.98,29.83,13,3,13,1.86
2013-2-24,72,58,47,60,54,46,98,86,65,30.01,29.86,10,2,10,0.84
2013-2-25,68,63,60,67,62,58,98,96,90,29.89,29.60,13,4,17,9.49
2013-2-26,62,55,49,61,44,37,98,68,47,29.96,29.63,14,4,17,0.00
2013-2-27,65,54,46,48,45,43,92,74,48,30.04,29.96,12,2,12,0.00
2013-2-28,60,50,40,45,36,30,86,61,37,30.13,30.04,15,4,15,0.00
2013-3-1,61,48,38,38,32,26,80,58,36,30.20,30.04,13,3,19,0.00
2013-3-2,50,40,31,30,25,21,76,57,44,30.25,30.13,15,5,20,0.00
2013-3-3,57,40,28,30,24,18,71,53,35,30.26,30.16,14,3,14,0.00
2013-3-4,68,52,34,53,41,28,86,69,50,30.17,30.01,11,3,17,0.00
2013-3-5,78,63,47,63,53,38,82,69,45,30.19,29.98,15,5,16,0.00
2013-3-6,64,49,38,38,31,28,74,53,35,30.28,30.19,16,4,16,0.00
2013-3-7,67,47,37,41,34,28,78,62,37,30.31,30.22,9,2,9,0.00
2013-3-8,71,53,38,46,40,33,86,65,35,30.28,30.19,10,2,10,0.00
2013-3-9,72,58,46,58,50,40,90,76,52,30.22,30.04,10,3,11,0.00
2013-3-10,78,67,60,65,61,57,92,81,62,30.07,29.95,16,5,19,0.00
2013-3-11,66,57,42,65,52,40,96,85,54,30.05,29.89,15,4,19,0.67
2013-3-12,66,50,37,42,38,35,96,69,34,30.22,30.05,14,3,14,0.00
2013-3-13,67,51,36,42,32,22,92,54,24,30.37,30.19,14,4,19,0.00
2013-3-14,68,49,34,34,29,23,78,49,28,30.43,30.31,14,2,14,0.00
2013-3-15,72,54,36,52,40,33,91,64,34,30.31,30.19,13,2,13,0.00
2013-3-16,76,60,43,60,50,41,93,72,44,30.19,30.04,13,2,14,0.00
2013-3-17,78,61,50,65,56,48,98,85,54,30.04,29.95,10,2,11,0.00
2013-3-18,81,70,62,70,65,59,95,84,62,29.95,29.83,11,3,13,0.00
2013-3-19,79,65,54,67,53,44,95,69,34,30.07,29.95,13,3,13,0.00
2013-3-20,67,56,42,45,37,29,70,50,33,30.13,30.01,15,3,15,0.00
2013-3-21,67,51,38,39,33,26,77,53,32,30.08,29.92,10,2,11,0.00
2013-3-22,70,59,45,57,51,38,86,75,60,29.96,29.86,13,3,15,0.00
2013-3-23,76,68,61,70,64,56,96,88,79,29.92,29.68,10,2,12,0.08
2013-3-24,77,66,47,68,53,28,96,67,36,29.99,29.68,23,6,23,0.00
2013-3-25,59,46,35,30,26,21,73,48,27,30.22,29.99,23,6,23,0.00
2013-3-26,41,37,32,25,24,22,68,59,47,30.37,30.22,5,2,5,0.00
2013-3-27,62,44,29,35,29,23,81,58,35,30.40,30.28,10,2,11,0.00
2013-3-28,69,51,33,45,36,29,88,59,33,30.34,30.24,7,2,12,0.00
2013-3-29,71,55,37,52,44,34,94,69,37,30.31,30.21,10,2,13,0.00
2013-3-30,76,60,46,62,52,45,98,76,45,30.22,30.07,10,2,15,0.26
2013-3-31,78,64,53,68,60,52,98,87,62,30.10,29.95,12,2,14,0.67
2013-4-1,74,61,52,61,55,50,99,84,46,30.10,29.98,10,2,11,0.00
2013-4-2,79,62,46,63,52,46,99,74,37,30.15,30.06,11,2,11,0.00
2013-4-3,63,58,54,60,57,53,100,97,86,30.12,29.82,25,3,25,3.59
2013-4-4,67,57,52,62,54,50,99,91,72,30.00,29.91,10,3,13,0.00
2013-4-5,69,55,46,50,47,44,92,77,44,30.15,30.00,13,4,14,0.00
2013-4-6,74,56,40,55,46,40,99,75,39,30.17,30.09,9,2,12,0.00
2013-4-7,75,61,46,62,54,45,98,80,50,30.14,30.05,9,2,9,0.00
2013-4-8,81,67,55,69,62,54,98,85,57,30.08,30.00,10,2,15,0.00
2013-4-9,82,73,68,72,68,66,94,85,64,30.11,29.99,11,4,14,0.00
2013-4-10,83,73,66,72,68,64,94,85,68,30.05,29.93,13,4,17,0.00
2013-4-11,82,70,56,75,67,55,94,90,80,29.93,29.70,19,5,19,1.58
2013-4-12,74,60,50,54,49,44,95,71,36,30.00,29.82,11,3,14,0.00
2013-4-13,80,63,47,55,50,45,95,67,33,30.06,29.93,8,2,10,0.00
2013-4-14,66,62,57,63,59,55,96,91,84,29.97,29.82,23,3,23,1.15
2013-4-15,77,70,64,72,66,61,89,87,84,30.05,29.85,6,2,9,0.04
2013-4-16,83,74,67,77,70,65,94,87,81,30.14,30.05,10,2,10,0.00
2013-4-17,83,73,66,76,68,63,93,87,75,30.14,30.02,9,2,11,0.00
2013-4-18,80,72,64,74,69,62,92,88,80,30.02,29.90,11,3,14,0.00
2013-4-19,75,55,42,71,53,41,98,93,85,30.18,29.84,14,4,18,0.63
2013-4-20,69,52,37,50,41,37,99,71,36,30.23,30.11,10,2,12,0.00
2013-4-21,74,58,43,52,45,41,95,68,35,30.21,30.11,10,2,11,0.00
2013-4-22,79,63,50,65,57,48,96,82,57,30.15,30.05,8,2,8,0.00
2013-4-23,77,66,57,68,62,56,96,86,70,30.12,30.05,9,2,10,0.00
2013-4-24,72,67,60,68,64,57,94,91,88,30.17,30.02,9,1,15,0.45
2013-4-25,75,61,54,62,55,50,93,80,52,30.26,30.17,9,3,10,0.00
2013-4-26,80,64,51,61,53,48,95,71,41,30.29,30.20,8,2,11,0.00
2013-4-27,81,69,59,69,63,58,96,83,62,30.20,30.08,10,2,11,0.00
2013-4-28,79,69,63,72,66,61,95,90,77,30.08,29.99,10,1,12,0.08
2013-4-29,80,69,63,71,65,61,94,86,64,30.02,29.93,7,1,9,0.00
2013-4-30,78,69,61,71,65,59,94,88,77,29.99,29.90,10,2,10,0.90
2013-5-1,75,68,63,71,64,59,89,88,85,29.94,29.88,20,2,20,7.85
2013-5-2,71,66,62,67,62,59,90,88,85,30.00,29.88,11,2,11,0.00
2013-5-3,75,64,48,70,60,47,96,90,81,30.00,29.87,17,4,20,0.00
2013-5-4,70,55,42,47,43,36,98,70,34,30.00,29.91,15,4,15,0.00
2013-5-5,66,58,46,57,47,40,97,68,41,30.03,29.85,15,4,18,0.00
2013-5-6,73,58,44,56,49,43,99,75,45,30.03,29.93,13,2,14,0.00
2013-5-7,77,63,50,62,56,49,99,81,50,30.06,29.97,8,1,10,0.00
2013-5-8,82,68,54,67,60,53,97,78,49,30.11,30.03,8,1,15,0.00
2013-5-9,81,67,58,67,61,56,96,84,55,30.14,30.05,8,1,11,0.04
2013-5-10,72,67,64,68,64,60,94,90,85,30.14,29.91,6,2,11,0.04
2013-5-11,75,67,60,70,63,58,91,89,84,30.06,29.99,5,1,6,0.13
2013-5-12,77,68,60,63,59,56,91,76,50,30.14,30.02,9,2,11,0.00
2013-5-13,78,64,52,57,50,42,94,67,33,30.26,30.14,9,2,10,0.00
2013-5-14,82,67,51,63,56,50,98,73,38,30.26,30.17,8,2,10,0.17
2013-5-15,81,61,55,65,56,52,97,86,42,30.20,30.05,3,0,4,0.00
2013-5-16,72,69,63,69,67,60,94,91,89,30.06,29.99,3,1,3,0.00
2013-5-20,88,81,70,77,73,66,89,79,64,30.08,29.99,6,2,9,0.00
2013-5-21,85,75,67,77,69,62,89,83,69,30.02,29.93,10,1,10,0.00
2013-5-22,81,71,65,74,66,62,89,85,77,30.08,29.93,11,1,11,0.20
2013-5-23,88,75,64,76,68,60,90,80,59,30.08,29.97,7,1,11,0.00
2013-5-24,86,76,66,72,66,61,90,73,47,30.17,30.05,9,2,13,0.00
2013-5-25,87,72,60,63,58,53,94,66,36,30.23,30.14,8,2,10,0.00
2013-5-26,85,72,60,71,63,58,95,76,45,30.20,30.12,6,1,10,0.00
2013-5-27,84,75,64,73,66,60,93,77,47,30.17,30.08,9,1,9,0.00
2013-5-28,85,72,59,73,66,57,93,82,60,30.11,30.05,10,1,10,0.00
2013-5-29,84,75,67,76,70,64,90,84,76,30.08,30.02,10,2,14,0.00
2013-5-30,83,77,72,76,71,67,86,83,79,30.08,30.02,11,2,12,0.00
2013-5-31,84,78,72,78,72,67,85,83,80,30.08,29.99,9,2,9,0.04
2013-6-1,85,78,72,78,71,66,84,81,79,30.05,29.99,6,1,9,0.17
2013-6-2,90,77,69,76,70,65,90,80,61,30.05,29.93,8,2,9,0.00
2013-6-3,88,77,69,79,72,64,90,84,69,29.96,29.90,6,1,6,0.58
2013-6-4,89,79,70,80,73,65,89,81,69,29.99,29.93,6,1,10,0.00
2013-6-5,87,78,71,79,72,66,88,83,76,29.99,29.90,9,2,9,0.04
2013-6-6,89,74,65,74,68,60,90,80,56,29.91,29.78,14,2,20,0.00
2013-6-7,69,68,67,66,65,63,90,89,87,29.85,29.82,5,1,6,0.00
2013-6-8,89,82,69,79,74,65,89,79,68,30.05,29.96,10,3,10,0.12
2013-6-9,82,74,68,75,68,64,88,82,79,30.05,29.96,8,1,13,0.04
2013-6-10,81,75,72,75,69,66,82,82,81,30.05,29.99,8,1,11,0.42
2013-6-11,92,80,72,82,74,67,90,82,68,30.14,30.05,8,1,8,0.00
2013-6-12,92,80,71,82,74,67,90,82,63,30.14,30.05,8,1,9,0.00
2013-6-13,84,75,73,75,71,69,91,88,76,30.05,29.93,3,0,5,1.37
2013-6-14,92,80,71,82,72,66,92,79,45,29.99,29.90,9,2,9,0.00
2013-6-15,90,77,69,78,72,66,92,86,68,30.05,29.96,6,1,6,0.00
2013-6-16,92,80,72,83,75,68,90,85,69,30.08,30.02,6,1,7,0.00
2013-6-17,91,82,75,81,76,70,89,83,69,30.05,29.99,8,2,12,0.00
2013-6-18,91,83,75,79,76,72,91,79,61,30.05,29.93,10,3,11,0.04
2013-6-19,86,78,70,79,73,66,91,86,77,30.05,29.96,9,1,9,0.00
2013-6-20,89,76,71,80,71,66,91,84,69,30.11,30.05,5,1,11,0.16
2013-6-21,90,77,68,82,71,63,88,82,71,30.14,30.08,10,1,10,0.00
2013-6-22,89,77,70,81,72,65,89,83,72,30.14,30.05,7,1,7,0.00
2013-6-23,88,76,71,81,70,66,86,83,78,30.11,30.05,8,1,11,2.56
2013-6-24,88,77,72,81,72,67,86,83,79,30.17,30.11,7,1,7,0.00
2013-6-25,91,80,70,83,74,65,88,83,74,30.14,30.05,8,1,10,0.00
2013-6-26,91,81,73,83,75,68,87,83,72,30.11,30.02,10,1,10,0.00
2013-6-27,93,82,73,84,75,68,88,81,64,30.05,29.96,9,1,10,0.00
2013-6-28,95,84,76,85,77,70,89,80,64,29.96,29.81,10,2,11,0.00
2013-6-29,92,82,73,82,75,69,90,82,71,29.84,29.75,11,2,11,0.00
2013-6-30,92,79,70,78,69,59,92,74,34,29.85,29.76,9,1,9,0.00
2013-7-1,89,77,68,74,67,59,92,74,37,29.94,29.82,9,2,10,0.00
2013-7-2,89,76,67,77,70,64,92,81,58,30.02,29.90,5,1,8,0.00
2013-7-3,85,74,72,79,69,66,88,84,81,30.05,29.99,9,2,9,0.00
2013-7-4,88,77,71,81,71,66,88,83,76,30.05,29.96,7,2,8,0.00
2013-7-5,77,74,71,71,68,65,82,81,80,30.11,29.99,6,1,10,0.00
2013-7-6,76,73,71,69,66,64,81,78,76,30.08,30.02,4,1,6,0.00
2013-7-7,78,74,72,68,64,60,76,71,66,30.17,30.05,4,1,7,0.00
2013-7-8,86,75,71,71,62,59,66,64,61,30.20,30.08,4,1,6,0.00
2013-7-9,90,79,70,75,66,57,65,63,60,30.20,30.11,10,1,10,0.00
2013-7-10,89,77,72,75,64,59,65,63,61,30.14,30.02,7,1,8,0.00
2013-7-11,80,75,72,65,61,59,64,63,62,30.05,29.93,10,1,10,0.00
2013-7-12,91,76,70,77,63,57,68,64,61,29.99,29.90,6,2,13,0.00
2013-7-13,90,75,69,75,61,56,64,63,60,29.99,29.87,5,1,6,0.00
2013-7-14,88,77,69,74,64,56,65,64,61,30.05,29.93,6,2,7,0.00
2013-7-15,88,77,70,73,63,57,64,63,61,30.14,30.02,8,2,10,0.00
2013-7-16,85,76,71,70,63,58,64,63,61,30.20,30.08,9,2,10,0.00
2013-7-17,90,79,71,76,65,58,65,63,61,30.23,30.14,8,2,10,0.00
2013-7-18,90,78,71,76,64,58,64,63,62,30.17,30.05,8,1,11,0.00
2013-7-19,87,76,70,72,62,57,65,63,60,30.11,29.99,6,1,8,0.00
2013-7-20,87,79,74,71,65,61,63,62,60,30.05,29.96,6,1,8,0.00
2013-7-21,86,78,74,72,64,60,65,63,61,30.11,30.02,10,1,11,0.00
2013-7-22,85,76,72,69,63,60,67,63,60,30.08,30.02,8,1,9,0.00
2013-7-23,91,81,73,80,69,61,71,67,63,30.08,29.96,12,2,12,0.00
2013-7-24,92,81,76,79,69,64,71,67,65,30.02,29.93,11,2,13,0.00
2013-7-25,90,77,71,78,66,60,73,69,67,30.05,29.93,7,1,7,0.00
2013-7-26,93,80,72,78,67,60,75,66,47,30.08,29.99,7,1,7,0.00
2013-7-27,82,75,72,69,63,61,69,67,65,30.02,29.93,10,1,19,0.00
2013-7-28,87,79,74,76,67,62,70,67,65,30.05,29.90,11,2,11,0.00
2013-7-29,92,81,73,80,69,61,71,67,64,30.14,30.02,10,1,10,0.00
2013-7-30,92,82,74,79,69,62,68,66,63,30.17,30.08,6,1,11,0.00
2013-7-31,91,80,75,79,68,62,70,66,64,30.14,30.02,17,1,17,0.00
2013-8-1,92,80,74,81,68,62,73,67,64,30.05,29.96,8,2,11,0.00
2013-8-2,93,81,72,80,68,60,71,67,64,30.05,29.93,6,1,6,0.00
2013-8-3,94,82,73,80,70,61,72,67,60,30.11,30.02,6,1,6,0.00
2013-8-4,94,82,74,81,70,62,72,67,64,30.11,30.02,6,1,8,0.00
2013-8-5,93,80,74,81,68,62,70,67,65,30.08,29.99,12,1,13,0.00
2013-8-6,94,81,74,82,69,62,71,67,63,30.05,29.96,11,1,13,0.00
2013-8-7,93,81,73,81,69,61,70,66,64,30.02,29.96,8,1,11,0.00
2013-8-8,92,82,76,79,69,63,68,65,61,30.02,29.96,6,1,9,0.00
2013-8-9,89,81,76,74,66,62,62,60,58,30.08,29.99,7,1,9,0.00
2013-8-10,93,80,76,77,65,61,64,61,58,30.11,30.05,5,1,7,0.00
2013-8-11,92,82,75,77,67,61,63,61,57,30.17,30.08,7,1,9,0.00
2013-8-12,88,81,77,72,66,62,61,60,58,30.14,30.05,6,0,6,0.00
2013-8-13,94,82,76,78,66,61,64,60,57,30.08,29.99,9,2,10,0.00
2013-8-14,83,78,76,67,63,61,61,60,59,30.05,29.96,9,1,11,0.00
2013-8-15,90,80,75,76,65,60,65,61,59,30.05,29.96,6,1,6,0.00
2013-8-16,90,79,74,75,65,60,64,62,59,30.05,29.96,8,2,8,0.00
2013-8-17,79,77,74,64,62,60,62,61,60,30.05,29.96,6,2,7,0.00
2013-8-18,86,78,75,69,63,61,61,60,58,30.05,29.99,8,2,11,0.00
2013-8-19,92,81,75,76,66,60,64,61,58,30.08,30.02,8,1,8,0.00
2013-8-20,90,80,74,74,65,59,64,61,58,30.11,30.05,6,1,7,0.00
2013-8-21,92,80,75,76,65,61,63,61,59,30.17,30.08,5,1,7,0.00
2013-8-22,91,80,74,76,66,59,66,62,59,30.14,30.02,7,2,9,0.00
2013-8-23,85,78,74,70,63,60,62,61,59,30.05,29.99,8,2,8,0.00
2013-8-24,81,76,74,66,62,59,61,61,60,30.17,30.02,4,1,5,0.00
2013-8-25,85,78,75,70,63,60,63,61,59,30.23,30.11,8,2,9,0.00
2013-8-26,89,78,70,73,64,57,68,62,56,30.23,30.14,8,2,9,0.00
2013-8-27,86,74,66,70,61,54,71,63,53,30.14,30.05,6,1,7,0.00
2013-8-28,88,75,65,73,62,52,69,64,56,30.11,30.05,6,1,6,0.00
2013-8-29,91,77,67,75,64,54,69,63,57,30.11,30.02,4,1,6,0.00
2013-8-30,92,78,69,76,65,56,68,63,57,30.05,29.96,6,1,7,0.00
2013-8-31,93,80,70,77,66,57,66,63,60,30.02,29.90,8,1,8,0.00
2013-9-1,92,80,73,77,66,59,65,62,59,29.99,29.90,6,1,10,0.00
2013-9-2,94,81,76,78,66,61,65,60,58,30.02,29.93,10,1,13,0.00
2013-9-3,94,81,73,77,66,60,64,60,57,30.02,29.93,8,2,13,0.00
2013-9-4,93,81,74,76,66,59,62,60,57,30.11,29.99,8,1,11,0.00
2013-9-5,93,83,76,77,68,61,63,60,57,30.14,30.05,6,1,12,0.00
2013-9-6,93,82,76,77,67,61,63,60,58,30.14,30.05,4,1,6,0.00
2013-9-7,93,81,73,76,66,59,66,61,52,30.08,30.02,4,1,6,0.00
2013-9-8,93,80,72,77,66,58,64,61,58,30.05,29.99,6,1,7,0.00
2013-9-9,93,80,73,77,66,58,65,61,58,30.08,29.99,6,1,6,0.00
2013-9-10,83,76,73,69,62,59,63,62,61,30.14,30.05,2,0,3,0.00
2013-9-11,93,81,72,77,67,59,67,61,52,30.14,30.08,8,2,10,0.00
2013-9-12,93,80,72,77,66,58,65,62,58,30.08,29.96,6,1,9,0.00
2013-9-13,95,82,72,77,66,58,66,61,49,29.96,29.84,6,1,6,0.00
2013-9-14,88,79,72,73,65,59,66,62,59,30.02,29.90,8,2,8,0.00
2013-9-15,94,79,68,78,65,55,65,63,59,30.08,29.99,5,1,8,0.00
2013-9-16,96,81,73,78,66,59,65,61,54,30.11,30.05,6,1,13,0.00
2013-9-17,74,74,74,60,60,60,62,61,61,30.08,30.05,3,0,3,0.00
2013-9-18,77,77,77,62,62,62,61,61,61,30.05,30.05,2,2,3,0.00
2013-9-21,78,78,78,63,63,63,60,60,60,29.81,29.81,6,3,6,0.00
2013-9-22,86,78,74,71,63,60,62,60,59,29.87,29.78,9,2,9,0.00
2013-9-23,95,81,71,78,66,57,62,61,59,29.93,29.84,6,1,8,0.00
2013-9-24,92,83,78,76,68,64,60,59,57,29.93,29.81,6,2,8,0.00
2013-9-26,94,80,71,74,65,57,67,60,45,29.99,29.87,6,1,7,0.00
2013-9-27,89,78,70,73,64,57,66,62,58,30.08,29.99,6,2,7,0.00
2013-9-28,89,75,66,72,61,53,68,62,48,30.11,30.05,5,1,7,0.00
2013-9-29,87,75,67,72,62,54,66,63,59,30.08,29.99,7,2,8,0.00
2013-9-30,88,77,72,73,63,58,63,61,59,30.02,29.96,6,1,7,0.00
2013-10-1,91,80,73,75,65,58,62,60,58,30.08,30.02,6,1,6,0.00
2013-10-2,90,81,76,74,65,61,61,60,58,30.08,30.02,8,2,8,0.00
2013-10-3,96,83,77,79,68,62,62,60,57,30.08,30.02,6,1,9,0.00
2013-10-4,95,83,74,78,67,60,63,60,57,30.08,30.02,6,1,9,0.00
2013-10-5,93,79,73,75,64,59,63,60,56,30.05,27.73,7,1,12,0.00
2013-10-6,82,75,69,66,60,56,65,60,58,29.99,29.87,10,2,12,0.00
2013-10-7,77,67,54,57,51,44,77,59,33,30.07,29.96,12,4,14,0.00
2013-10-8,63,56,52,56,46,42,78,68,66,30.07,30.02,3,1,4,0.00
2013-10-9,82,68,57,67,55,46,66,63,60,30.16,30.04,7,2,7,0.00
2013-10-10,84,71,65,69,57,52,63,61,59,30.16,30.07,5,1,8,0.00
2013-10-11,87,73,64,72,59,50,64,61,58,30.13,30.04,8,1,8,0.00
2013-10-12,88,74,65,72,60,52,67,61,54,30.16,30.04,7,1,8,0.00
2013-10-13,88,74,66,72,60,53,66,61,57,30.19,30.10,6,1,6,0.00
2013-10-14,87,73,65,69,58,52,69,61,50,30.16,30.07,6,1,6,0.00
2013-10-15,86,70,63,71,56,50,66,63,60,30.13,30.04,4,1,8,0.00
2013-10-16,88,74,64,71,60,51,66,61,56,30.07,30.01,7,1,9,0.00
2013-10-17,84,76,67,69,61,54,64,61,59,30.04,29.98,10,3,13,0.00
2013-10-18,77,69,63,63,56,50,69,64,56,30.07,29.98,8,2,13,0.00
2013-10-19,69,64,60,55,51,47,66,63,61,30.07,29.95,6,2,13,0.00
2013-10-20,77,64,57,62,52,45,70,63,55,30.10,30.04,6,2,6,0.00
2013-10-21,75,66,59,61,53,47,65,63,61,30.10,30.04,6,1,6,0.00
2013-10-22,82,70,59,65,55,49,76,61,40,30.04,29.95,10,2,10,0.00
2013-10-23,74,61,48,54,44,33,86,59,24,30.16,30.04,11,3,13,0.00
2013-10-24,76,59,42,54,46,34,83,64,38,30.25,30.14,6,1,7,0.00
2013-10-25,66,54,42,45,39,33,85,60,32,30.40,30.25,13,2,13,0.00
2013-10-26,71,51,36,46,38,30,86,66,32,30.31,30.19,5,1,6,0.00
2013-10-27,73,56,42,59,46,33,78,68,58,30.20,30.13,5,1,6,0.00
2013-10-28,83,65,53,68,53,42,71,65,58,30.25,30.13,6,1,9,0.00
2013-10-29,82,67,57,68,55,45,68,64,60,30.28,30.22,7,1,7,0.00
2013-10-30,83,71,62,68,57,49,64,62,59,30.25,30.13,6,1,8,0.00
2013-10-31,85,78,70,70,63,56,62,61,59,30.13,29.92,11,3,15,0.00
2013-11-1,83,72,59,68,58,48,66,62,56,29.98,29.86,10,2,11,0.00
2013-11-2,79,64,54,60,47,42,66,55,33,30.16,29.96,14,3,14,0.00
2013-11-3,68,53,42,49,41,35,85,67,36,30.23,30.13,7,2,10,0.00
2013-11-4,74,58,43,57,47,35,77,68,51,30.25,30.17,9,2,10,0.00
2013-11-5,75,64,58,60,53,47,74,67,58,30.28,30.19,11,3,11,0.00
2013-11-6,81,68,55,67,55,44,69,65,62,30.19,30.13,6,2,8,0.00
2013-11-7,71,62,50,57,50,41,76,64,52,30.28,30.10,15,4,17,0.00
2013-11-8,68,52,41,41,37,31,87,60,26,30.31,30.19,11,3,13,0.00
2013-11-9,75,57,41,58,47,35,86,70,55,30.25,30.17,6,2,6,0.00
2013-11-10,77,62,51,59,49,42,80,64,39,30.28,30.19,6,2,9,0.00
2013-11-11,78,59,47,56,46,38,80,64,35,30.25,30.16,4,1,6,0.00
2013-11-12,72,55,40,53,42,22,72,61,42,30.43,30.19,15,4,15,0.00
2013-11-13,54,39,30,21,18,14,64,44,25,30.49,30.40,12,3,13,0.00
2013-11-14,63,47,30,43,31,18,69,54,39,30.41,30.16,8,3,8,0.00
2013-11-15,70,60,54,57,49,43,79,66,61,30.16,30.04,8,2,10,0.00
2013-11-16,79,71,63,64,57,50,63,61,59,30.13,30.04,6,2,8,0.00
2013-11-17,83,76,73,67,62,58,61,60,58,30.07,29.98,9,2,11,0.00
2013-11-18,76,69,59,61,55,44,64,61,57,30.13,30.01,10,1,10,0.00
2013-11-19,66,54,42,45,40,33,83,61,32,30.17,30.07,10,2,12,0.00
2013-11-20,73,54,39,58,44,32,76,70,54,30.16,30.07,6,2,7,0.00
2013-11-21,68,62,53,56,49,42,67,65,63,30.25,30.16,9,2,9,0.00
2013-11-22,78,68,61,63,55,48,64,63,61,30.25,30.19,8,1,13,0.00
2013-11-23,67,62,51,54,50,42,71,65,62,30.31,30.19,11,3,13,0.00
2013-11-24,55,47,39,42,27,20,71,47,27,30.37,30.28,14,4,16,0.00
2013-11-25,63,48,37,51,37,20,75,64,47,30.31,29.89,9,3,11,0.00
2013-11-26,66,52,44,53,41,34,68,66,63,29.99,29.77,18,5,21,0.00
2013-11-27,50,40,30,35,28,22,89,64,36,30.37,29.99,18,6,23,0.00
2013-11-28,49,35,26,28,24,22,89,68,35,30.49,30.37,7,2,9,0.00
2013-11-29,60,39,27,32,26,23,88,65,25,30.52,30.40,7,2,9,0.00
2013-11-30,65,43,28,43,33,25,90,71,34,30.43,30.28,6,1,8,0.00
2013-12-1,68,48,34,53,40,28,85,73,45,30.28,30.07,6,1,9,0.00
2013-12-2,71,56,43,54,45,34,78,68,47,30.07,29.86,8,1,11,0.00
2013-12-3,73,66,58,60,53,48,68,64,63,29.92,29.83,11,3,13,0.00
2013-12-4,78,73,68,64,59,54,63,62,60,30.04,29.92,9,3,12,0.00
2013-12-5,80,76,72,64,61,58,61,61,60,30.10,30.01,12,3,23,0.00
2013-12-6,81,72,53,66,58,42,66,62,59,30.22,30.04,4,4,4,0.00
2013-12-7,53,46,44,42,36,34,68,68,66,30.28,30.19,4,4,4,0.00
2013-12-8,62,52,46,50,41,36,68,66,64,30.22,30.07,4,4,4,0.00
2013-12-26,49,44,44,42,37,36,77,75,74,30.24,30.17,4,2,4,0.00
2013-12-27,62,50,41,40,33,28,80,54,30,30.33,30.21,9,2,10,0.00
2013-12-28,50,47,44,40,38,29,84,71,44,30.21,29.91,11,3,11,0.00
2013-12-29,61,51,43,49,41,34,74,69,63,30.10,29.88,9,2,9,0.00
2013-12-30,58,50,41,47,40,32,72,69,66,30.25,30.07,5,1,6,0.00
2013-12-31,52,48,45,42,38,36,72,70,68,30.34,30.22,6,2,10,0.00
2014-1-1,62,54,45,51,44,36,70,67,65,30.28,30.01,4,1,4,0.00
2014-1-2,61,53,34,49,39,20,69,60,45,30.28,29.89,20,6,24,0.00